sensor_id;sensor_type;location;lat;lon;timestamp;P1;durP1;ratioP1;P2;durP2;ratioP2
58252;SDS011;44050;48.884;8.762;2022-11-09T00:02:03;2.30;;;1.20;;
58252;SDS011;44050;48.884;8.762;2022-11-09T00:04:35;2.00;;;1.90;;
58252;SDS011;44050;48.884;8.762;2022-11-09T00:07:05;2.63;;;1.80;;
58252;SDS011;44050;48.884;8.762;2022-11-09T00:09:36;1.33;;;1.23;;
58252;SDS011;44050;48.884;8.762;2022-11-09T00:12:07;1.70;;;1.35;;
58252;SDS011;44050;48.884;8.762;2022-11-09T00:14:37;1.75;;;1.65;;
58252;SDS011;44050;48.884;8.762;2022-11-09T00:17:08;1.42;;;1.23;;
58252;SDS011;44050;48.884;8.762;2022-11-09T00:19:39;2.33;;;1.40;;
58252;SDS011;44050;48.884;8.762;2022-11-09T00:22:10;1.85;;;1.75;;
58252;SDS011;44050;48.884;8.762;2022-11-09T00:24:41;1.10;;;1.10;;
58252;SDS011;44050;48.884;8.762;2022-11-09T00:27:12;2.22;;;1.27;;
58252;SDS011;44050;48.884;8.762;2022-11-09T00:29:43;2.08;;;1.85;;
58252;SDS011;44050;48.884;8.762;2022-11-09T00:32:14;2.30;;;1.70;;
58252;SDS011;44050;48.884;8.762;2022-11-09T00:34:46;1.48;;;1.33;;
58252;SDS011;44050;48.884;8.762;2022-11-09T00:37:17;1.42;;;1.33;;
58252;SDS011;44050;48.884;8.762;2022-11-09T00:39:48;0.85;;;0.85;;
58252;SDS011;44050;48.884;8.762;2022-11-09T00:42:19;2.15;;;1.20;;
58252;SDS011;44050;48.884;8.762;2022-11-09T00:44:49;2.50;;;1.95;;
58252;SDS011;44050;48.884;8.762;2022-11-09T00:47:20;1.65;;;1.30;;
58252;SDS011;44050;48.884;8.762;2022-11-09T00:49:51;1.80;;;1.70;;
58252;SDS011;44050;48.884;8.762;2022-11-09T00:52:22;1.65;;;1.55;;
58252;SDS011;44050;48.884;8.762;2022-11-09T00:54:53;1.52;;;1.02;;
58252;SDS011;44050;48.884;8.762;2022-11-09T00:57:24;2.22;;;1.70;;
58252;SDS011;44050;48.884;8.762;2022-11-09T00:59:55;1.42;;;1.08;;
58252;SDS011;44050;48.884;8.762;2022-11-09T01:02:26;2.45;;;1.17;;
58252;SDS011;44050;48.884;8.762;2022-11-09T01:04:56;1.48;;;1.30;;
58252;SDS011;44050;48.884;8.762;2022-11-09T01:07:28;1.15;;;1.05;;
58252;SDS011;44050;48.884;8.762;2022-11-09T01:09:58;0.90;;;0.90;;
58252;SDS011;44050;48.884;8.762;2022-11-09T01:12:29;3.47;;;2.17;;
58252;SDS011;44050;48.884;8.762;2022-11-09T01:15:00;0.90;;;0.90;;
58252;SDS011;44050;48.884;8.762;2022-11-09T01:17:31;1.80;;;1.52;;
58252;SDS011;44050;48.884;8.762;2022-11-09T01:20:01;1.30;;;1.20;;
58252;SDS011;44050;48.884;8.762;2022-11-09T01:22:33;1.08;;;0.98;;
58252;SDS011;44050;48.884;8.762;2022-11-09T01:25:04;1.25;;;1.15;;
58252;SDS011;44050;48.884;8.762;2022-11-09T01:27:35;1.45;;;1.25;;
58252;SDS011;44050;48.884;8.762;2022-11-09T01:30:09;7.22;;;2.63;;
58252;SDS011;44050;48.884;8.762;2022-11-09T01:32:40;1.77;;;1.67;;
58252;SDS011;44050;48.884;8.762;2022-11-09T01:35:10;1.65;;;1.23;;
58252;SDS011;44050;48.884;8.762;2022-11-09T01:37:41;3.20;;;1.10;;
58252;SDS011;44050;48.884;8.762;2022-11-09T01:40:13;1.23;;;1.00;;
58252;SDS011;44050;48.884;8.762;2022-11-09T01:42:44;2.60;;;1.20;;
58252;SDS011;44050;48.884;8.762;2022-11-09T01:47:51;1.83;;;1.00;;
58252;SDS011;44050;48.884;8.762;2022-11-09T01:53:15;1.25;;;0.95;;
58252;SDS011;44050;48.884;8.762;2022-11-09T01:55:47;1.00;;;0.82;;
58252;SDS011;44050;48.884;8.762;2022-11-09T01:58:27;1.63;;;1.02;;
58252;SDS011;44050;48.884;8.762;2022-11-09T02:00:58;3.95;;;1.50;;
58252;SDS011;44050;48.884;8.762;2022-11-09T02:03:34;1.65;;;1.00;;
58252;SDS011;44050;48.884;8.762;2022-11-09T02:06:07;0.95;;;0.70;;
58252;SDS011;44050;48.884;8.762;2022-11-09T02:08:39;1.25;;;1.20;;
58252;SDS011;44050;48.884;8.762;2022-11-09T02:11:11;1.00;;;1.00;;
58252;SDS011;44050;48.884;8.762;2022-11-09T02:13:45;2.13;;;1.30;;
58252;SDS011;44050;48.884;8.762;2022-11-09T02:16:16;1.13;;;1.02;;
58252;SDS011;44050;48.884;8.762;2022-11-09T02:21:19;2.70;;;0.70;;
58252;SDS011;44050;48.884;8.762;2022-11-09T02:23:51;3.10;;;0.60;;
58252;SDS011;44050;48.884;8.762;2022-11-09T02:28:53;0.85;;;0.85;;
58252;SDS011;44050;48.884;8.762;2022-11-09T02:31:27;1.80;;;0.90;;
58252;SDS011;44050;48.884;8.762;2022-11-09T02:34:01;0.93;;;0.70;;
58252;SDS011;44050;48.884;8.762;2022-11-09T02:36:32;2.05;;;0.63;;
58252;SDS011;44050;48.884;8.762;2022-11-09T02:39:05;1.23;;;1.10;;
58252;SDS011;44050;48.884;8.762;2022-11-09T02:44:07;0.70;;;0.70;;
58252;SDS011;44050;48.884;8.762;2022-11-09T02:46:38;1.15;;;0.82;;
58252;SDS011;44050;48.884;8.762;2022-11-09T02:49:08;2.00;;;1.10;;
58252;SDS011;44050;48.884;8.762;2022-11-09T02:54:10;0.90;;;0.90;;
58252;SDS011;44050;48.884;8.762;2022-11-09T02:56:42;2.05;;;0.70;;
58252;SDS011;44050;48.884;8.762;2022-11-09T02:59:13;1.40;;;1.02;;
58252;SDS011;44050;48.884;8.762;2022-11-09T03:01:46;0.80;;;0.80;;
58252;SDS011;44050;48.884;8.762;2022-11-09T03:04:17;1.15;;;1.00;;
58252;SDS011;44050;48.884;8.762;2022-11-09T03:06:48;0.80;;;0.55;;
58252;SDS011;44050;48.884;8.762;2022-11-09T03:09:21;0.63;;;0.63;;
58252;SDS011;44050;48.884;8.762;2022-11-09T03:11:53;1.58;;;0.90;;
58252;SDS011;44050;48.884;8.762;2022-11-09T03:14:28;8.68;;;2.70;;
58252;SDS011;44050;48.884;8.762;2022-11-09T03:17:01;1.00;;;1.00;;
58252;SDS011;44050;48.884;8.762;2022-11-09T03:19:32;1.67;;;1.10;;
58252;SDS011;44050;48.884;8.762;2022-11-09T03:22:03;1.20;;;0.85;;
58252;SDS011;44050;48.884;8.762;2022-11-09T03:24:33;1.10;;;1.10;;
58252;SDS011;44050;48.884;8.762;2022-11-09T03:27:04;2.80;;;1.35;;
58252;SDS011;44050;48.884;8.762;2022-11-09T03:29:35;1.15;;;1.13;;
58252;SDS011;44050;48.884;8.762;2022-11-09T03:32:06;1.25;;;1.10;;
58252;SDS011;44050;48.884;8.762;2022-11-09T03:34:38;1.90;;;1.08;;
58252;SDS011;44050;48.884;8.762;2022-11-09T03:37:09;2.53;;;1.55;;
58252;SDS011;44050;48.884;8.762;2022-11-09T03:39:40;2.20;;;1.13;;
58252;SDS011;44050;48.884;8.762;2022-11-09T03:42:11;1.48;;;0.77;;
58252;SDS011;44050;48.884;8.762;2022-11-09T03:44:43;1.63;;;1.23;;
58252;SDS011;44050;48.884;8.762;2022-11-09T03:47:13;1.77;;;1.60;;
58252;SDS011;44050;48.884;8.762;2022-11-09T03:49:44;2.72;;;2.38;;
58252;SDS011;44050;48.884;8.762;2022-11-09T03:52:15;1.38;;;0.98;;
58252;SDS011;44050;48.884;8.762;2022-11-09T03:54:46;2.33;;;0.88;;
58252;SDS011;44050;48.884;8.762;2022-11-09T03:57:16;1.02;;;1.00;;
58252;SDS011;44050;48.884;8.762;2022-11-09T03:59:47;0.85;;;0.85;;
58252;SDS011;44050;48.884;8.762;2022-11-09T04:02:18;1.17;;;1.10;;
58252;SDS011;44050;48.884;8.762;2022-11-09T04:04:48;0.65;;;0.65;;
58252;SDS011;44050;48.884;8.762;2022-11-09T04:07:19;4.97;;;1.20;;
58252;SDS011;44050;48.884;8.762;2022-11-09T04:09:50;1.60;;;1.15;;
58252;SDS011;44050;48.884;8.762;2022-11-09T04:12:21;1.85;;;1.35;;
58252;SDS011;44050;48.884;8.762;2022-11-09T04:14:51;2.47;;;0.98;;
58252;SDS011;44050;48.884;8.762;2022-11-09T04:17:22;1.60;;;1.10;;
58252;SDS011;44050;48.884;8.762;2022-11-09T04:19:53;0.85;;;0.57;;
58252;SDS011;44050;48.884;8.762;2022-11-09T04:22:23;0.80;;;0.50;;
58252;SDS011;44050;48.884;8.762;2022-11-09T04:24:54;0.52;;;0.50;;
58252;SDS011;44050;48.884;8.762;2022-11-09T04:27:25;0.40;;;0.40;;
58252;SDS011;44050;48.884;8.762;2022-11-09T04:29:56;0.57;;;0.57;;
58252;SDS011;44050;48.884;8.762;2022-11-09T04:32:26;2.38;;;1.25;;
58252;SDS011;44050;48.884;8.762;2022-11-09T04:34:57;0.50;;;0.40;;
58252;SDS011;44050;48.884;8.762;2022-11-09T04:37:28;1.55;;;0.75;;
58252;SDS011;44050;48.884;8.762;2022-11-09T04:39:58;1.10;;;0.57;;
58252;SDS011;44050;48.884;8.762;2022-11-09T04:42:29;0.80;;;0.50;;
58252;SDS011;44050;48.884;8.762;2022-11-09T04:45:00;1.15;;;0.77;;
58252;SDS011;44050;48.884;8.762;2022-11-09T04:47:30;4.70;;;0.55;;
58252;SDS011;44050;48.884;8.762;2022-11-09T04:50:01;0.52;;;0.52;;
58252;SDS011;44050;48.884;8.762;2022-11-09T04:52:32;0.38;;;0.38;;
58252;SDS011;44050;48.884;8.762;2022-11-09T04:55:03;0.50;;;0.50;;
58252;SDS011;44050;48.884;8.762;2022-11-09T04:57:34;0.30;;;0.30;;
58252;SDS011;44050;48.884;8.762;2022-11-09T05:00:04;0.70;;;0.70;;
58252;SDS011;44050;48.884;8.762;2022-11-09T05:02:35;0.82;;;0.82;;
58252;SDS011;44050;48.884;8.762;2022-11-09T05:05:06;0.47;;;0.47;;
58252;SDS011;44050;48.884;8.762;2022-11-09T05:07:37;0.65;;;0.65;;
58252;SDS011;44050;48.884;8.762;2022-11-09T05:10:08;0.70;;;0.70;;
58252;SDS011;44050;48.884;8.762;2022-11-09T05:12:38;1.58;;;0.80;;
58252;SDS011;44050;48.884;8.762;2022-11-09T05:15:09;3.83;;;0.77;;
58252;SDS011;44050;48.884;8.762;2022-11-09T05:17:40;0.28;;;0.28;;
58252;SDS011;44050;48.884;8.762;2022-11-09T05:20:11;3.38;;;1.30;;
58252;SDS011;44050;48.884;8.762;2022-11-09T05:22:41;1.50;;;0.90;;
58252;SDS011;44050;48.884;8.762;2022-11-09T05:25:31;0.60;;;0.60;;
58252;SDS011;44050;48.884;8.762;2022-11-09T05:28:01;1.20;;;0.82;;
58252;SDS011;44050;48.884;8.762;2022-11-09T05:30:32;0.63;;;0.60;;
58252;SDS011;44050;48.884;8.762;2022-11-09T05:33:03;0.63;;;0.50;;
58252;SDS011;44050;48.884;8.762;2022-11-09T05:35:34;0.60;;;0.60;;
58252;SDS011;44050;48.884;8.762;2022-11-09T05:38:04;0.85;;;0.70;;
58252;SDS011;44050;48.884;8.762;2022-11-09T05:40:35;1.00;;;0.70;;
58252;SDS011;44050;48.884;8.762;2022-11-09T05:43:06;1.42;;;0.73;;
58252;SDS011;44050;48.884;8.762;2022-11-09T05:45:37;0.88;;;0.88;;
58252;SDS011;44050;48.884;8.762;2022-11-09T05:48:07;0.93;;;0.93;;
58252;SDS011;44050;48.884;8.762;2022-11-09T05:50:39;2.10;;;0.70;;
58252;SDS011;44050;48.884;8.762;2022-11-09T05:53:20;2.28;;;0.63;;
58252;SDS011;44050;48.884;8.762;2022-11-09T05:55:51;0.32;;;0.32;;
58252;SDS011;44050;48.884;8.762;2022-11-09T05:58:22;0.80;;;0.80;;
58252;SDS011;44050;48.884;8.762;2022-11-09T06:00:53;0.70;;;0.70;;
58252;SDS011;44050;48.884;8.762;2022-11-09T06:03:23;0.82;;;0.80;;
58252;SDS011;44050;48.884;8.762;2022-11-09T06:05:54;2.45;;;1.05;;
58252;SDS011;44050;48.884;8.762;2022-11-09T06:08:25;0.50;;;0.50;;
58252;SDS011;44050;48.884;8.762;2022-11-09T06:10:59;2.05;;;1.20;;
58252;SDS011;44050;48.884;8.762;2022-11-09T06:13:31;0.60;;;0.57;;
58252;SDS011;44050;48.884;8.762;2022-11-09T06:16:03;2.58;;;0.73;;
58252;SDS011;44050;48.884;8.762;2022-11-09T06:18:34;0.90;;;0.70;;
58252;SDS011;44050;48.884;8.762;2022-11-09T06:21:05;2.85;;;1.48;;
58252;SDS011;44050;48.884;8.762;2022-11-09T06:23:36;0.52;;;0.50;;
58252;SDS011;44050;48.884;8.762;2022-11-09T06:26:07;6.65;;;1.70;;
58252;SDS011;44050;48.884;8.762;2022-11-09T06:28:39;0.90;;;0.90;;
58252;SDS011;44050;48.884;8.762;2022-11-09T06:31:12;0.60;;;0.60;;
58252;SDS011;44050;48.884;8.762;2022-11-09T06:33:43;1.63;;;0.73;;
58252;SDS011;44050;48.884;8.762;2022-11-09T06:36:13;1.08;;;0.98;;
58252;SDS011;44050;48.884;8.762;2022-11-09T06:38:47;0.60;;;0.60;;
58252;SDS011;44050;48.884;8.762;2022-11-09T06:41:18;1.35;;;1.20;;
58252;SDS011;44050;48.884;8.762;2022-11-09T06:43:48;0.82;;;0.82;;
58252;SDS011;44050;48.884;8.762;2022-11-09T06:46:19;1.30;;;1.15;;
58252;SDS011;44050;48.884;8.762;2022-11-09T06:48:50;0.95;;;0.95;;
58252;SDS011;44050;48.884;8.762;2022-11-09T06:51:21;1.33;;;0.88;;
58252;SDS011;44050;48.884;8.762;2022-11-09T06:53:52;5.88;;;1.98;;
58252;SDS011;44050;48.884;8.762;2022-11-09T06:56:23;1.27;;;1.17;;
58252;SDS011;44050;48.884;8.762;2022-11-09T06:58:54;1.00;;;0.65;;
58252;SDS011;44050;48.884;8.762;2022-11-09T07:01:26;0.70;;;0.70;;
58252;SDS011;44050;48.884;8.762;2022-11-09T07:03:57;1.25;;;1.15;;
58252;SDS011;44050;48.884;8.762;2022-11-09T07:06:27;0.93;;;0.68;;
58252;SDS011;44050;48.884;8.762;2022-11-09T07:08:58;0.82;;;0.82;;
58252;SDS011;44050;48.884;8.762;2022-11-09T07:11:29;1.30;;;0.93;;
58252;SDS011;44050;48.884;8.762;2022-11-09T07:14:00;1.45;;;1.35;;
58252;SDS011;44050;48.884;8.762;2022-11-09T07:16:32;4.78;;;1.33;;
58252;SDS011;44050;48.884;8.762;2022-11-09T07:19:02;1.02;;;1.00;;
58252;SDS011;44050;48.884;8.762;2022-11-09T07:21:33;1.17;;;0.90;;
58252;SDS011;44050;48.884;8.762;2022-11-09T07:24:04;0.90;;;0.90;;
58252;SDS011;44050;48.884;8.762;2022-11-09T07:26:35;0.70;;;0.70;;
58252;SDS011;44050;48.884;8.762;2022-11-09T07:29:06;0.75;;;0.75;;
58252;SDS011;44050;48.884;8.762;2022-11-09T07:31:36;0.82;;;0.82;;
58252;SDS011;44050;48.884;8.762;2022-11-09T07:34:07;0.80;;;0.80;;
58252;SDS011;44050;48.884;8.762;2022-11-09T07:36:38;0.80;;;0.80;;
58252;SDS011;44050;48.884;8.762;2022-11-09T07:39:09;1.00;;;1.00;;
58252;SDS011;44050;48.884;8.762;2022-11-09T07:41:39;0.60;;;0.60;;
58252;SDS011;44050;48.884;8.762;2022-11-09T07:44:10;1.85;;;1.48;;
58252;SDS011;44050;48.884;8.762;2022-11-09T07:46:47;0.70;;;0.70;;
58252;SDS011;44050;48.884;8.762;2022-11-09T07:49:18;1.17;;;1.08;;
58252;SDS011;44050;48.884;8.762;2022-11-09T07:51:49;0.63;;;0.60;;
58252;SDS011;44050;48.884;8.762;2022-11-09T07:54:20;0.40;;;0.40;;
58252;SDS011;44050;48.884;8.762;2022-11-09T07:56:50;1.52;;;0.30;;
58252;SDS011;44050;48.884;8.762;2022-11-09T07:59:21;1.35;;;1.05;;
58252;SDS011;44050;48.884;8.762;2022-11-09T08:01:52;0.38;;;0.38;;
58252;SDS011;44050;48.884;8.762;2022-11-09T08:04:23;1.98;;;0.25;;
58252;SDS011;44050;48.884;8.762;2022-11-09T08:06:53;0.50;;;0.50;;
58252;SDS011;44050;48.884;8.762;2022-11-09T08:09:24;1.30;;;0.30;;
58252;SDS011;44050;48.884;8.762;2022-11-09T08:11:55;0.25;;;0.22;;
58252;SDS011;44050;48.884;8.762;2022-11-09T08:14:26;0.30;;;0.28;;
58252;SDS011;44050;48.884;8.762;2022-11-09T08:16:56;0.57;;;0.40;;
58252;SDS011;44050;48.884;8.762;2022-11-09T08:19:27;0.60;;;0.60;;
58252;SDS011;44050;48.884;8.762;2022-11-09T08:21:58;0.35;;;0.35;;
58252;SDS011;44050;48.884;8.762;2022-11-09T08:24:29;0.52;;;0.52;;
58252;SDS011;44050;48.884;8.762;2022-11-09T08:26:59;0.28;;;0.28;;
58252;SDS011;44050;48.884;8.762;2022-11-09T08:29:30;0.93;;;0.50;;
58252;SDS011;44050;48.884;8.762;2022-11-09T08:32:01;0.40;;;0.40;;
58252;SDS011;44050;48.884;8.762;2022-11-09T08:34:35;0.30;;;0.30;;
58252;SDS011;44050;48.884;8.762;2022-11-09T08:37:06;0.82;;;0.50;;
58252;SDS011;44050;48.884;8.762;2022-11-09T08:39:37;0.40;;;0.40;;
58252;SDS011;44050;48.884;8.762;2022-11-09T08:42:08;0.40;;;0.30;;
58252;SDS011;44050;48.884;8.762;2022-11-09T08:44:38;0.93;;;0.60;;
58252;SDS011;44050;48.884;8.762;2022-11-09T08:47:09;3.85;;;1.42;;
58252;SDS011;44050;48.884;8.762;2022-11-09T08:49:40;0.45;;;0.45;;
58252;SDS011;44050;48.884;8.762;2022-11-09T08:52:14;1.65;;;0.93;;
58252;SDS011;44050;48.884;8.762;2022-11-09T08:54:45;0.45;;;0.45;;
58252;SDS011;44050;48.884;8.762;2022-11-09T08:57:18;0.63;;;0.30;;
58252;SDS011;44050;48.884;8.762;2022-11-09T08:59:49;0.43;;;0.40;;
58252;SDS011;44050;48.884;8.762;2022-11-09T09:02:23;1.05;;;0.60;;
58252;SDS011;44050;48.884;8.762;2022-11-09T09:04:57;0.65;;;0.43;;
58252;SDS011;44050;48.884;8.762;2022-11-09T09:07:32;0.50;;;0.50;;
58252;SDS011;44050;48.884;8.762;2022-11-09T09:10:03;0.38;;;0.35;;
58252;SDS011;44050;48.884;8.762;2022-11-09T09:12:34;0.77;;;0.55;;
58252;SDS011;44050;48.884;8.762;2022-11-09T09:15:05;0.63;;;0.63;;
58252;SDS011;44050;48.884;8.762;2022-11-09T09:17:35;1.40;;;1.30;;
58252;SDS011;44050;48.884;8.762;2022-11-09T09:20:06;0.55;;;0.50;;
58252;SDS011;44050;48.884;8.762;2022-11-09T09:22:37;0.50;;;0.50;;
58252;SDS011;44050;48.884;8.762;2022-11-09T09:25:08;3.00;;;0.40;;
58252;SDS011;44050;48.884;8.762;2022-11-09T09:27:38;0.40;;;0.32;;
58252;SDS011;44050;48.884;8.762;2022-11-09T09:30:09;0.30;;;0.30;;
58252;SDS011;44050;48.884;8.762;2022-11-09T09:32:40;1.38;;;0.50;;
58252;SDS011;44050;48.884;8.762;2022-11-09T09:35:11;0.52;;;0.38;;
58252;SDS011;44050;48.884;8.762;2022-11-09T09:37:42;0.60;;;0.50;;
58252;SDS011;44050;48.884;8.762;2022-11-09T09:40:21;0.40;;;0.40;;
58252;SDS011;44050;48.884;8.762;2022-11-09T09:42:52;1.75;;;0.55;;
58252;SDS011;44050;48.884;8.762;2022-11-09T09:45:27;1.45;;;0.40;;
58252;SDS011;44050;48.884;8.762;2022-11-09T09:50:51;0.70;;;0.70;;
58252;SDS011;44050;48.884;8.762;2022-11-09T09:56:20;0.30;;;0.30;;
58252;SDS011;44050;48.884;8.762;2022-11-09T09:58:55;2.20;;;0.40;;
58252;SDS011;44050;48.884;8.762;2022-11-09T10:01:31;3.17;;;0.70;;
58252;SDS011;44050;48.884;8.762;2022-11-09T10:04:24;0.40;;;0.38;;
58252;SDS011;44050;48.884;8.762;2022-11-09T10:25:05;0.28;;;0.28;;
58252;SDS011;44050;48.884;8.762;2022-11-09T10:27:45;0.30;;;0.30;;
58252;SDS011;44050;48.884;8.762;2022-11-09T10:30:19;0.52;;;0.30;;
58252;SDS011;44050;48.884;8.762;2022-11-09T10:32:58;0.30;;;0.30;;
58252;SDS011;44050;48.884;8.762;2022-11-09T10:35:33;0.30;;;0.30;;
58252;SDS011;44050;48.884;8.762;2022-11-09T10:38:09;0.38;;;0.38;;
58252;SDS011;44050;48.884;8.762;2022-11-09T10:47:17;1.13;;;0.75;;
58252;SDS011;44050;48.884;8.762;2022-11-09T10:53:21;1.38;;;0.40;;
58252;SDS011;44050;48.884;8.762;2022-11-09T10:56:15;0.40;;;0.40;;
58252;SDS011;44050;48.884;8.762;2022-11-09T10:59:26;0.30;;;0.30;;
58252;SDS011;44050;48.884;8.762;2022-11-09T11:02:58;1.13;;;0.50;;
58252;SDS011;44050;48.884;8.762;2022-11-09T11:05:27;0.40;;;0.40;;
58252;SDS011;44050;48.884;8.762;2022-11-09T11:08:25;1.90;;;0.68;;
58252;SDS011;44050;48.884;8.762;2022-11-09T11:14:08;0.57;;;0.30;;
58252;SDS011;44050;48.884;8.762;2022-11-09T11:16:58;1.38;;;1.27;;
58252;SDS011;44050;48.884;8.762;2022-11-09T11:19:47;0.68;;;0.60;;
58252;SDS011;44050;48.884;8.762;2022-11-09T11:22:36;0.88;;;0.88;;
58252;SDS011;44050;48.884;8.762;2022-11-09T11:25:25;0.55;;;0.55;;
58252;SDS011;44050;48.884;8.762;2022-11-09T11:28:18;1.17;;;0.82;;
58252;SDS011;44050;48.884;8.762;2022-11-09T11:31:19;2.85;;;0.73;;
58252;SDS011;44050;48.884;8.762;2022-11-09T11:34:12;0.63;;;0.63;;
58252;SDS011;44050;48.884;8.762;2022-11-09T11:39:57;0.82;;;0.70;;
58252;SDS011;44050;48.884;8.762;2022-11-09T11:42:50;1.20;;;0.57;;
58252;SDS011;44050;48.884;8.762;2022-11-09T11:54:51;0.57;;;0.57;;
58252;SDS011;44050;48.884;8.762;2022-11-09T11:58:03;0.65;;;0.65;;
58252;SDS011;44050;48.884;8.762;2022-11-09T12:03:55;0.80;;;0.65;;
58252;SDS011;44050;48.884;8.762;2022-11-09T12:09:48;1.08;;;0.68;;
58252;SDS011;44050;48.884;8.762;2022-11-09T12:33:38;1.00;;;0.90;;
58252;SDS011;44050;48.884;8.762;2022-11-09T12:39:30;2.58;;;0.90;;
58252;SDS011;44050;48.884;8.762;2022-11-09T12:48:27;1.20;;;1.13;;
58252;SDS011;44050;48.884;8.762;2022-11-09T12:51:17;0.50;;;0.50;;
58252;SDS011;44050;48.884;8.762;2022-11-09T12:54:07;3.40;;;1.48;;
58252;SDS011;44050;48.884;8.762;2022-11-09T12:57:04;0.70;;;0.65;;
58252;SDS011;44050;48.884;8.762;2022-11-09T12:59:58;0.50;;;0.50;;
58252;SDS011;44050;48.884;8.762;2022-11-09T13:02:55;0.52;;;0.52;;
58252;SDS011;44050;48.884;8.762;2022-11-09T13:05:45;0.60;;;0.60;;
58252;SDS011;44050;48.884;8.762;2022-11-09T13:08:36;1.58;;;0.68;;
58252;SDS011;44050;48.884;8.762;2022-11-09T13:11:34;2.47;;;0.82;;
58252;SDS011;44050;48.884;8.762;2022-11-09T13:14:25;1.20;;;0.80;;
58252;SDS011;44050;48.884;8.762;2022-11-09T13:29:21;1.27;;;1.17;;
58252;SDS011;44050;48.884;8.762;2022-11-09T13:35:00;2.35;;;2.15;;
58252;SDS011;44050;48.884;8.762;2022-11-09T13:37:54;8.75;;;1.02;;
58252;SDS011;44050;48.884;8.762;2022-11-09T13:40:45;1.58;;;0.70;;
58252;SDS011;44050;48.884;8.762;2022-11-09T13:43:36;1.33;;;0.80;;
58252;SDS011;44050;48.884;8.762;2022-11-09T13:46:31;1.67;;;0.93;;
58252;SDS011;44050;48.884;8.762;2022-11-09T13:49:35;1.02;;;0.60;;
58252;SDS011;44050;48.884;8.762;2022-11-09T13:55:36;1.85;;;0.45;;
58252;SDS011;44050;48.884;8.762;2022-11-09T13:58:37;0.80;;;0.80;;
58252;SDS011;44050;48.884;8.762;2022-11-09T14:04:21;1.50;;;0.93;;
58252;SDS011;44050;48.884;8.762;2022-11-09T14:10:18;6.55;;;0.82;;
58252;SDS011;44050;48.884;8.762;2022-11-09T14:16:13;1.67;;;1.30;;
58252;SDS011;44050;48.884;8.762;2022-11-09T14:21:57;1.58;;;1.13;;
58252;SDS011;44050;48.884;8.762;2022-11-09T14:24:47;1.10;;;0.60;;
58252;SDS011;44050;48.884;8.762;2022-11-09T14:27:36;1.10;;;1.00;;
58252;SDS011;44050;48.884;8.762;2022-11-09T14:30:33;0.70;;;0.70;;
58252;SDS011;44050;48.884;8.762;2022-11-09T14:33:32;3.13;;;1.05;;
58252;SDS011;44050;48.884;8.762;2022-11-09T14:36:23;0.98;;;0.50;;
58252;SDS011;44050;48.884;8.762;2022-11-09T14:39:16;1.05;;;1.05;;
58252;SDS011;44050;48.884;8.762;2022-11-09T14:42:10;3.80;;;0.70;;
58252;SDS011;44050;48.884;8.762;2022-11-09T14:45:04;1.80;;;1.02;;
58252;SDS011;44050;48.884;8.762;2022-11-09T14:47:56;0.70;;;0.70;;
58252;SDS011;44050;48.884;8.762;2022-11-09T14:53:36;0.60;;;0.60;;
58252;SDS011;44050;48.884;8.762;2022-11-09T14:56:26;7.30;;;2.25;;
58252;SDS011;44050;48.884;8.762;2022-11-09T14:59:19;0.70;;;0.65;;
58252;SDS011;44050;48.884;8.762;2022-11-09T15:02:11;0.88;;;0.63;;
58252;SDS011;44050;48.884;8.762;2022-11-09T15:05:01;1.60;;;0.70;;
58252;SDS011;44050;48.884;8.762;2022-11-09T15:07:51;1.52;;;0.98;;
58252;SDS011;44050;48.884;8.762;2022-11-09T15:10:46;1.20;;;1.08;;
58252;SDS011;44050;48.884;8.762;2022-11-09T15:13:37;1.23;;;1.08;;
58252;SDS011;44050;48.884;8.762;2022-11-09T15:16:27;2.50;;;1.33;;
58252;SDS011;44050;48.884;8.762;2022-11-09T15:28:17;1.33;;;0.90;;
58252;SDS011;44050;48.884;8.762;2022-11-09T15:31:09;0.98;;;0.60;;
58252;SDS011;44050;48.884;8.762;2022-11-09T15:34:00;0.88;;;0.60;;
58252;SDS011;44050;48.884;8.762;2022-11-09T15:36:53;1.63;;;0.80;;
58252;SDS011;44050;48.884;8.762;2022-11-09T15:39:43;2.58;;;0.73;;
58252;SDS011;44050;48.884;8.762;2022-11-09T15:42:32;0.45;;;0.45;;
58252;SDS011;44050;48.884;8.762;2022-11-09T15:45:21;0.90;;;0.73;;
58252;SDS011;44050;48.884;8.762;2022-11-09T15:48:10;0.88;;;0.38;;
58252;SDS011;44050;48.884;8.762;2022-11-09T15:51:00;0.28;;;0.28;;
58252;SDS011;44050;48.884;8.762;2022-11-09T15:53:49;0.93;;;0.60;;
58252;SDS011;44050;48.884;8.762;2022-11-09T15:56:39;0.70;;;0.65;;
58252;SDS011;44050;48.884;8.762;2022-11-09T15:59:32;1.75;;;1.50;;
58252;SDS011;44050;48.884;8.762;2022-11-09T16:02:21;6.78;;;4.32;;
58252;SDS011;44050;48.884;8.762;2022-11-09T16:05:11;5.55;;;3.38;;
58252;SDS011;44050;48.884;8.762;2022-11-09T16:08:00;7.90;;;5.18;;
58252;SDS011;44050;48.884;8.762;2022-11-09T16:10:52;4.70;;;3.15;;
58252;SDS011;44050;48.884;8.762;2022-11-09T16:13:41;4.85;;;4.03;;
58252;SDS011;44050;48.884;8.762;2022-11-09T16:16:31;7.68;;;5.78;;
58252;SDS011;44050;48.884;8.762;2022-11-09T16:20:30;5.50;;;4.95;;
58252;SDS011;44050;48.884;8.762;2022-11-09T16:23:20;4.78;;;2.97;;
58252;SDS011;44050;48.884;8.762;2022-11-09T16:26:10;2.80;;;2.60;;
58252;SDS011;44050;48.884;8.762;2022-11-09T16:28:59;1.07;;;1.07;;
58252;SDS011;44050;48.884;8.762;2022-11-09T16:31:49;1.05;;;1.05;;
58252;SDS011;44050;48.884;8.762;2022-11-09T16:34:39;1.45;;;1.40;;
58252;SDS011;44050;48.884;8.762;2022-11-09T16:37:28;0.82;;;0.82;;
58252;SDS011;44050;48.884;8.762;2022-11-09T16:40:19;2.50;;;2.30;;
58252;SDS011;44050;48.884;8.762;2022-11-09T16:43:09;2.10;;;1.90;;
58252;SDS011;44050;48.884;8.762;2022-11-09T16:45:58;1.63;;;1.52;;
58252;SDS011;44050;48.884;8.762;2022-11-09T16:48:48;1.42;;;1.10;;
58252;SDS011;44050;48.884;8.762;2022-11-09T16:51:37;1.05;;;1.05;;
58252;SDS011;44050;48.884;8.762;2022-11-09T16:54:27;1.38;;;0.80;;
58252;SDS011;44050;48.884;8.762;2022-11-09T16:57:16;1.23;;;1.20;;
58252;SDS011;44050;48.884;8.762;2022-11-09T17:00:06;1.92;;;1.40;;
58252;SDS011;44050;48.884;8.762;2022-11-09T17:02:56;0.60;;;0.60;;
58252;SDS011;44050;48.884;8.762;2022-11-09T17:05:45;2.33;;;1.10;;
58252;SDS011;44050;48.884;8.762;2022-11-09T17:08:36;0.47;;;0.47;;
58252;SDS011;44050;48.884;8.762;2022-11-09T17:11:25;2.03;;;0.95;;
58252;SDS011;44050;48.884;8.762;2022-11-09T17:14:14;0.82;;;0.77;;
58252;SDS011;44050;48.884;8.762;2022-11-09T17:17:04;0.75;;;0.75;;
58252;SDS011;44050;48.884;8.762;2022-11-09T17:19:53;1.00;;;0.85;;
58252;SDS011;44050;48.884;8.762;2022-11-09T17:22:42;2.28;;;0.50;;
58252;SDS011;44050;48.884;8.762;2022-11-09T17:25:32;7.22;;;3.85;;
58252;SDS011;44050;48.884;8.762;2022-11-09T17:28:21;9.63;;;1.85;;
58252;SDS011;44050;48.884;8.762;2022-11-09T17:31:13;1.27;;;1.17;;
58252;SDS011;44050;48.884;8.762;2022-11-09T17:34:02;2.00;;;1.20;;
58252;SDS011;44050;48.884;8.762;2022-11-09T17:36:52;0.65;;;0.45;;
58252;SDS011;44050;48.884;8.762;2022-11-09T17:39:42;1.52;;;0.60;;
58252;SDS011;44050;48.884;8.762;2022-11-09T17:42:32;0.52;;;0.45;;
58252;SDS011;44050;48.884;8.762;2022-11-09T17:45:22;0.67;;;0.60;;
58252;SDS011;44050;48.884;8.762;2022-11-09T17:48:11;2.17;;;0.52;;
58252;SDS011;44050;48.884;8.762;2022-11-09T17:51:00;0.77;;;0.45;;
58252;SDS011;44050;48.884;8.762;2022-11-09T17:53:50;1.02;;;0.93;;
58252;SDS011;44050;48.884;8.762;2022-11-09T17:56:39;0.60;;;0.60;;
58252;SDS011;44050;48.884;8.762;2022-11-09T17:59:29;1.17;;;0.82;;
58252;SDS011;44050;48.884;8.762;2022-11-09T18:02:18;0.43;;;0.43;;
58252;SDS011;44050;48.884;8.762;2022-11-09T18:05:08;2.13;;;0.98;;
58252;SDS011;44050;48.884;8.762;2022-11-09T18:07:59;0.98;;;0.90;;
58252;SDS011;44050;48.884;8.762;2022-11-09T18:10:50;1.38;;;1.30;;
58252;SDS011;44050;48.884;8.762;2022-11-09T18:13:40;1.20;;;0.93;;
58252;SDS011;44050;48.884;8.762;2022-11-09T18:16:30;2.15;;;2.05;;
58252;SDS011;44050;48.884;8.762;2022-11-09T18:19:20;1.40;;;1.30;;